createdAt,value
2018-09-04T00:01:39.137Z,101278.00
2018-09-04T00:04:07.964Z,101274.00
2018-09-04T00:06:36.775Z,101261.00
2018-09-04T00:09:06.792Z,101255.00
2018-09-04T00:11:35.715Z,101263.00
2018-09-04T00:14:04.932Z,101258.00
2018-09-04T00:16:33.718Z,101253.00
2018-09-04T00:19:02.552Z,101249.00
2018-09-04T00:21:31.347Z,101243.00
2018-09-04T00:24:00.349Z,101244.00
2018-09-04T00:26:29.171Z,101245.00
2018-09-04T00:28:58.077Z,101239.00
2018-09-04T00:31:26.862Z,101243.00
2018-09-04T00:33:55.909Z,101242.00
2018-09-04T00:36:24.701Z,101235.00
2018-09-04T00:38:53.478Z,101235.00
2018-09-04T00:41:22.273Z,101240.00
2018-09-04T00:43:51.055Z,101245.00
2018-09-04T00:46:19.862Z,101243.00
2018-09-04T00:48:48.698Z,101240.00
2018-09-04T00:51:17.497Z,101236.00
2018-09-04T00:53:46.275Z,101233.00
2018-09-04T00:56:15.559Z,101237.00
2018-09-04T00:58:44.346Z,101247.00
2018-09-04T01:01:13.142Z,101243.00
2018-09-04T01:03:41.954Z,101246.00
2018-09-04T01:06:10.834Z,101260.00
2018-09-04T01:08:39.639Z,101244.00
2018-09-04T01:11:08.445Z,101245.00
2018-09-04T01:13:43.446Z,101246.00
2018-09-04T01:16:13.571Z,101248.00
2018-09-04T01:18:42.341Z,101264.00
2018-09-04T01:21:11.600Z,101255.00
2018-09-04T01:23:40.605Z,101255.00
2018-09-04T01:26:09.387Z,101250.00
2018-09-04T01:28:38.186Z,101256.00
2018-09-04T01:31:07.019Z,101245.00
2018-09-04T01:33:35.789Z,101253.00
2018-09-04T01:36:04.748Z,101248.00
2018-09-04T01:38:33.841Z,101258.00
2018-09-04T01:41:02.644Z,101257.00
2018-09-04T01:43:31.425Z,101258.00
2018-09-04T01:46:00.256Z,101254.00
2018-09-04T01:48:29.056Z,101255.00
2018-09-04T01:50:57.855Z,101258.00
2018-09-04T01:53:26.653Z,101260.00
2018-09-04T01:55:55.476Z,101254.00
2018-09-04T01:58:24.257Z,101255.00
2018-09-04T02:00:53.460Z,101253.00
2018-09-04T02:03:22.256Z,101249.00
2018-09-04T02:05:51.077Z,101254.00
2018-09-04T02:08:19.887Z,101258.00
2018-09-04T02:10:48.681Z,101251.00
2018-09-04T02:13:17.484Z,101257.00
2018-09-04T02:15:46.309Z,101255.00
2018-09-04T02:18:15.592Z,101248.00
2018-09-04T02:20:44.423Z,101249.00
2018-09-04T02:23:13.484Z,101242.00
2018-09-04T02:25:42.318Z,101244.00
2018-09-04T02:28:11.110Z,101243.00
2018-09-04T02:30:39.910Z,101246.00
2018-09-04T02:33:08.896Z,101235.00
2018-09-04T02:35:37.666Z,101243.00
2018-09-04T02:38:07.237Z,101243.00
2018-09-04T02:40:36.323Z,101243.00
2018-09-04T02:43:05.212Z,101234.00
2018-09-04T02:45:34.271Z,101248.00
2018-09-04T02:48:03.117Z,101237.00
2018-09-04T02:50:31.880Z,101241.00
2018-09-04T02:53:00.670Z,101242.00
2018-09-04T02:55:29.468Z,101240.00
2018-09-04T02:57:59.226Z,101249.00
2018-09-04T03:00:28.275Z,101248.00
2018-09-04T03:02:57.055Z,101240.00
2018-09-04T03:05:25.963Z,101249.00
2018-09-04T03:07:55.059Z,101246.00
2018-09-04T03:10:23.881Z,101239.00
2018-09-04T03:12:52.658Z,101244.00
2018-09-04T03:15:21.486Z,101249.00
2018-09-04T03:17:57.260Z,101248.00
2018-09-04T03:20:26.474Z,101248.00
2018-09-04T03:22:55.294Z,101244.00
2018-09-04T03:25:24.105Z,101246.00
2018-09-04T03:27:53.334Z,101246.00
2018-09-04T03:30:22.126Z,101244.00
2018-09-04T03:32:50.927Z,101252.00
2018-09-04T03:35:19.725Z,101254.00
2018-09-04T03:37:48.536Z,101255.00
2018-09-04T03:40:17.337Z,101251.00
2018-09-04T03:42:46.132Z,101259.00
2018-09-04T03:45:15.004Z,101249.00
2018-09-04T03:47:43.778Z,101255.00
2018-09-04T03:50:12.860Z,101265.00
2018-09-04T03:52:41.649Z,101252.00
2018-09-04T03:55:10.475Z,101255.00
2018-09-04T03:57:39.282Z,101251.00
2018-09-04T04:00:08.789Z,101253.00
2018-09-04T04:02:37.580Z,101257.00
2018-09-04T04:05:08.315Z,101254.00
2018-09-04T04:07:37.124Z,101250.00
2018-09-04T04:10:07.124Z,101256.00
2018-09-04T04:12:36.199Z,101248.00
2018-09-04T04:15:04.994Z,101255.00
2018-09-04T04:17:33.811Z,101260.00
2018-09-04T04:20:02.651Z,101263.00
2018-09-04T04:22:34.821Z,101264.00
2018-09-04T04:25:03.654Z,101256.00
2018-09-04T04:27:32.484Z,101256.00
2018-09-04T04:30:01.319Z,101254.00
2018-09-04T04:32:30.593Z,101262.00
2018-09-04T04:34:59.422Z,101259.00
2018-09-04T04:37:28.234Z,101264.00
2018-09-04T04:39:57.054Z,101265.00
2018-09-04T04:42:25.832Z,101265.00
2018-09-04T04:44:54.659Z,101266.00
2018-09-04T04:47:28.773Z,101268.00
2018-09-04T04:49:57.869Z,101274.00
2018-09-04T04:52:26.690Z,101272.00
2018-09-04T04:54:55.798Z,101274.00
2018-09-04T04:57:24.959Z,101277.00
2018-09-04T04:59:54.093Z,101275.00
2018-09-04T05:02:22.911Z,101273.00
2018-09-04T05:04:51.753Z,101286.00
2018-09-04T05:07:26.322Z,101288.00
2018-09-04T05:09:55.158Z,101289.00
2018-09-04T05:12:24.171Z,101277.00
2018-09-04T05:14:53.456Z,101283.00
2018-09-04T05:17:22.251Z,101284.00
2018-09-04T05:19:51.078Z,101286.00
2018-09-04T05:22:19.910Z,101285.00
2018-09-04T05:24:49.326Z,101285.00
2018-09-04T05:27:18.115Z,101297.00
2018-09-04T05:29:46.919Z,101290.00
2018-09-04T05:33:24.502Z,101288.00
2018-09-04T05:35:55.263Z,101300.00
2018-09-04T05:38:24.047Z,101296.00
2018-09-04T05:40:52.845Z,101299.00
2018-09-04T05:43:29.203Z,101290.00
2018-09-04T05:46:00.143Z,101287.00
2018-09-04T05:48:28.950Z,101302.00
2018-09-04T05:50:57.958Z,101294.00
2018-09-04T05:53:26.789Z,101284.00
2018-09-04T05:55:55.585Z,101289.00
2018-09-04T05:58:24.391Z,101297.00
2018-09-04T06:00:57.175Z,101293.00
2018-09-04T06:03:25.977Z,101286.00
2018-09-04T06:05:54.787Z,101291.00
2018-09-04T06:08:23.609Z,101297.00
2018-09-04T06:10:52.953Z,101285.00
2018-09-04T06:13:21.731Z,101287.00
2018-09-04T06:15:50.524Z,101284.00
2018-09-04T06:18:19.334Z,101286.00
2018-09-04T06:20:48.155Z,101287.00
2018-09-04T06:23:16.987Z,101287.00
2018-09-04T06:25:46.398Z,101294.00
2018-09-04T06:28:15.231Z,101297.00
2018-09-04T06:30:44.032Z,101296.00
2018-09-04T06:33:13.125Z,101291.00
2018-09-04T06:35:41.934Z,101294.00
2018-09-04T06:38:10.734Z,101285.00
2018-09-04T06:40:39.579Z,101288.00
2018-09-04T06:43:08.395Z,101295.00
2018-09-04T06:45:37.203Z,101294.00
2018-09-04T06:48:06.165Z,101297.00
2018-09-04T06:50:34.992Z,101303.00
2018-09-04T06:53:03.826Z,101306.00
2018-09-04T06:55:33.095Z,101306.00
2018-09-04T06:58:01.883Z,101314.00
2018-09-04T07:00:30.693Z,101306.00
2018-09-04T07:02:59.503Z,101297.00
2018-09-04T07:05:28.342Z,101306.00
2018-09-04T07:07:57.190Z,101307.00
2018-09-04T07:10:26.068Z,101306.00
2018-09-04T07:12:54.918Z,101309.00
2018-09-04T07:15:23.690Z,101317.00
2018-09-04T07:17:53.203Z,101309.00
2018-09-04T07:20:22.033Z,101311.00
2018-09-04T07:22:50.835Z,101315.00
2018-09-04T07:25:19.643Z,101305.00
2018-09-04T07:27:48.887Z,101306.00
2018-09-04T07:30:17.714Z,101305.00
2018-09-04T07:32:46.527Z,101307.00
2018-09-04T07:35:15.324Z,101306.00
2018-09-04T07:37:44.143Z,101309.00
2018-09-04T07:40:13.091Z,101302.00
2018-09-04T07:42:41.949Z,101313.00
2018-09-04T07:45:11.002Z,101308.00
2018-09-04T07:47:39.806Z,101307.00
2018-09-04T07:50:10.328Z,101312.00
2018-09-04T07:52:39.267Z,101313.00
2018-09-04T07:55:08.315Z,101308.00
2018-09-04T07:57:37.107Z,101307.00
2018-09-04T08:00:08.373Z,101274.00
2018-09-04T08:02:37.650Z,101297.00
2018-09-04T08:05:08.335Z,101306.00
2018-09-04T08:07:37.130Z,101302.00
2018-09-04T08:10:08.013Z,101297.00
2018-09-04T08:12:36.803Z,101299.00
2018-09-04T08:15:05.660Z,101303.00
2018-09-04T08:17:34.478Z,101302.00
2018-09-04T08:20:03.987Z,101289.00
2018-09-04T08:22:32.775Z,101299.00
2018-09-04T08:25:01.864Z,101300.00
2018-09-04T08:27:30.663Z,101307.00
2018-09-04T08:29:59.855Z,101292.00
2018-09-04T08:32:28.663Z,101299.00
2018-09-04T08:34:57.482Z,101296.00
2018-09-04T08:37:26.324Z,101291.00
2018-09-04T08:39:55.487Z,101292.00
2018-09-04T08:42:24.290Z,101290.00
2018-09-04T08:44:53.092Z,101294.00
2018-09-04T08:47:22.698Z,101291.00
2018-09-04T08:49:51.452Z,101294.00
2018-09-04T08:52:20.282Z,101289.00
2018-09-04T08:54:49.074Z,101283.00
2018-09-04T08:57:17.878Z,101282.00
2018-09-04T08:59:46.702Z,101281.00
2018-09-04T09:02:15.506Z,101282.00
2018-09-04T09:04:44.438Z,101283.00
2018-09-04T09:07:13.254Z,101276.00
2018-09-04T09:09:42.465Z,101281.00
2018-09-04T09:12:11.224Z,101280.00
2018-09-04T09:14:40.007Z,101281.00
2018-09-04T09:17:08.901Z,101266.00
2018-09-04T09:19:37.697Z,101277.00
2018-09-04T09:22:06.509Z,101282.00
2018-09-04T09:24:35.383Z,101277.00
2018-09-04T09:27:04.210Z,101264.00
2018-09-04T09:29:33.006Z,101264.00
2018-09-04T09:32:02.705Z,101265.00
2018-09-04T09:34:31.496Z,101259.00
2018-09-04T09:37:00.393Z,101271.00
2018-09-04T09:39:29.143Z,101250.00
2018-09-04T09:41:57.921Z,101261.00
2018-09-04T09:44:26.749Z,101259.00
2018-09-04T09:47:01.841Z,101251.00
2018-09-04T09:49:31.824Z,101239.00
2018-09-04T09:52:00.931Z,101245.00
2018-09-04T09:54:30.052Z,101250.00
2018-09-04T09:56:58.898Z,101246.00
2018-09-04T09:59:27.821Z,101256.00
2018-09-04T10:02:02.049Z,101250.00
2018-09-04T10:04:30.861Z,101254.00
2018-09-04T10:06:59.650Z,101245.00
2018-09-04T10:09:28.479Z,101248.00
2018-09-04T10:11:57.289Z,101248.00
2018-09-04T10:14:26.091Z,101245.00
2018-09-04T10:16:55.167Z,101247.00
2018-09-04T10:19:24.009Z,101233.00
2018-09-04T10:21:52.834Z,101249.00
2018-09-04T10:24:21.639Z,101246.00
2018-09-04T10:26:50.436Z,101241.00
2018-09-04T10:29:19.247Z,101246.00
2018-09-04T10:31:48.057Z,101248.00
2018-09-04T10:34:17.328Z,101245.00
2018-09-04T10:36:46.843Z,101234.00
2018-09-04T10:39:21.231Z,101243.00
2018-09-04T10:41:56.875Z,101229.00
2018-09-04T10:44:27.139Z,101245.00
2018-09-04T10:46:55.890Z,101240.00
2018-09-04T10:49:24.684Z,101255.00
2018-09-04T10:51:53.470Z,101242.00
2018-09-04T10:54:22.254Z,101241.00
2018-09-04T10:56:51.065Z,101244.00
2018-09-04T10:59:20.350Z,101237.00
2018-09-04T11:01:49.159Z,101231.00
2018-09-04T11:04:17.941Z,101224.00
2018-09-04T11:06:46.760Z,101217.00
2018-09-04T11:09:15.671Z,101230.00
2018-09-04T11:11:44.471Z,101228.00
2018-09-04T11:14:13.274Z,101219.00
2018-09-04T11:16:42.072Z,101213.00
2018-09-04T11:19:10.866Z,101213.00
2018-09-04T11:21:40.062Z,101215.00
2018-09-04T11:24:08.860Z,101213.00
2018-09-04T11:26:37.687Z,101218.00
2018-09-04T11:29:08.280Z,101214.00
2018-09-04T11:31:37.208Z,101217.00
2018-09-04T11:34:06.095Z,101213.00
2018-09-04T11:36:35.469Z,101209.00
2018-09-04T11:39:05.510Z,101220.00
2018-09-04T11:41:34.348Z,101213.00
2018-09-04T11:44:03.754Z,101218.00
2018-09-04T11:46:33.971Z,101221.00
2018-09-04T11:49:02.781Z,101215.00
2018-09-04T11:51:31.590Z,101209.00
2018-09-04T11:54:00.399Z,101210.00
2018-09-04T11:56:29.191Z,101209.00
2018-09-04T11:58:58.002Z,101213.00
2018-09-04T12:01:29.366Z,101219.00
2018-09-04T12:03:58.166Z,101218.00
2018-09-04T12:06:27.298Z,101225.00
2018-09-04T12:08:56.107Z,101211.00
2018-09-04T12:11:24.917Z,101207.00
2018-09-04T12:13:53.732Z,101210.00
2018-09-04T12:16:22.553Z,101207.00
2018-09-04T12:18:51.516Z,101204.00
2018-09-04T12:21:20.410Z,101210.00
2018-09-04T12:23:49.132Z,101202.00
2018-09-04T12:26:17.953Z,101206.00
2018-09-04T12:28:47.160Z,101203.00
2018-09-04T12:31:15.965Z,101208.00
2018-09-04T12:33:44.812Z,101215.00
2018-09-04T12:36:13.586Z,101220.00
2018-09-04T12:38:43.563Z,101217.00
2018-09-04T12:41:14.268Z,101210.00
2018-09-04T12:43:43.144Z,101210.00
2018-09-04T12:46:11.926Z,101203.00
2018-09-04T12:48:45.377Z,101214.00
2018-09-04T12:51:14.191Z,101211.00
2018-09-04T12:53:43.034Z,101208.00
2018-09-04T12:56:11.865Z,101212.00
2018-09-04T12:58:40.676Z,101203.00
2018-09-04T13:01:09.476Z,101202.00
2018-09-04T13:03:38.375Z,101207.00
2018-09-04T13:06:07.190Z,101203.00
2018-09-04T13:08:35.991Z,101200.00
2018-09-04T13:11:05.011Z,101202.00
2018-09-04T13:13:33.817Z,101208.00
2018-09-04T13:16:02.622Z,101201.00
2018-09-04T13:18:31.584Z,101213.00
2018-09-04T13:21:01.287Z,101205.00
2018-09-04T13:23:30.678Z,101209.00
2018-09-04T13:25:59.475Z,101206.00
2018-09-04T13:28:28.956Z,101217.00
2018-09-04T13:30:57.796Z,101218.00
2018-09-04T13:33:27.054Z,101206.00
2018-09-04T13:35:55.876Z,101204.00
2018-09-04T13:38:24.655Z,101205.00
2018-09-04T13:40:59.149Z,101213.00
2018-09-04T13:43:27.942Z,101202.00
2018-09-04T13:45:56.749Z,101215.00
2018-09-04T13:48:29.214Z,101209.00
2018-09-04T13:50:58.453Z,101202.00
2018-09-04T13:53:27.792Z,101211.00
2018-09-04T13:55:57.226Z,101203.00
2018-09-04T13:58:26.105Z,101217.00
2018-09-04T14:00:54.978Z,101211.00
2018-09-04T14:03:24.294Z,101226.00
2018-09-04T14:05:53.147Z,101224.00
2018-09-04T14:08:21.947Z,101214.00
2018-09-04T14:10:51.472Z,101213.00
2018-09-04T14:13:20.294Z,101222.00
2018-09-04T14:15:49.474Z,101211.00
2018-09-04T14:18:18.299Z,101232.00
2018-09-04T14:20:47.122Z,101228.00
2018-09-04T14:23:15.910Z,101224.00
2018-09-04T14:25:44.764Z,101216.00
2018-09-04T14:28:13.557Z,101220.00
2018-09-04T14:30:42.481Z,101216.00
2018-09-04T14:33:12.734Z,101222.00
2018-09-04T14:35:41.663Z,101213.00
2018-09-04T14:38:10.513Z,101213.00
2018-09-04T14:40:39.392Z,101216.00
2018-09-04T14:43:08.917Z,101207.00
2018-09-04T14:45:37.735Z,101219.00
2018-09-04T14:48:06.695Z,101212.00
2018-09-04T14:50:35.564Z,101214.00
2018-09-04T14:53:04.338Z,101220.00
2018-09-04T14:55:33.654Z,101219.00
2018-09-04T14:58:02.497Z,101217.00
2018-09-04T15:00:31.303Z,101209.00
2018-09-04T15:03:00.149Z,101203.00
2018-09-04T15:05:29.014Z,101208.00
2018-09-04T15:07:57.799Z,101206.00
2018-09-04T15:10:26.671Z,101206.00
2018-09-04T15:12:55.492Z,101217.00
2018-09-04T15:15:24.314Z,101218.00
2018-09-04T15:17:53.673Z,101211.00
2018-09-04T15:20:22.527Z,101214.00
2018-09-04T15:22:51.407Z,101212.00
2018-09-04T15:25:20.361Z,101212.00
2018-09-04T15:27:49.162Z,101226.00
2018-09-04T15:30:18.022Z,101220.00
2018-09-04T15:32:47.344Z,101226.00
2018-09-04T15:35:16.182Z,101232.00
2018-09-04T15:37:45.020Z,101224.00
2018-09-04T15:40:13.999Z,101228.00
2018-09-04T15:42:42.875Z,101218.00
2018-09-04T15:45:12.180Z,101222.00
2018-09-04T15:47:41.003Z,101215.00
2018-09-04T15:50:09.855Z,101230.00
2018-09-04T15:52:38.633Z,101226.00
2018-09-04T15:55:08.635Z,101232.00
2018-09-04T15:57:37.434Z,101231.00
2018-09-04T16:02:43.958Z,101240.00
2018-09-04T16:05:12.803Z,101240.00
2018-09-04T16:07:41.635Z,101236.00
2018-09-04T16:10:10.509Z,101236.00
2018-09-04T16:12:39.266Z,101228.00
2018-09-04T16:15:08.267Z,101234.00
2018-09-04T16:17:37.107Z,101230.00
2018-09-04T16:20:05.918Z,101238.00
2018-09-04T16:22:34.719Z,101236.00
2018-09-04T16:25:04.075Z,101239.00
2018-09-04T16:27:32.859Z,101235.00
2018-09-04T16:30:01.681Z,101235.00
2018-09-04T16:32:30.512Z,101239.00
2018-09-04T16:34:59.376Z,101243.00
2018-09-04T16:37:28.230Z,101242.00
2018-09-04T16:39:57.079Z,101245.00
2018-09-04T16:42:25.880Z,101245.00
2018-09-04T16:44:54.679Z,101240.00
2018-09-04T16:47:24.397Z,101250.00
2018-09-04T16:49:53.207Z,101244.00
2018-09-04T16:52:22.077Z,101246.00
2018-09-04T16:54:54.115Z,101249.00
2018-09-04T16:57:22.969Z,101249.00
2018-09-04T16:59:51.734Z,101253.00
2018-09-04T17:02:20.654Z,101252.00
2018-09-04T17:04:49.473Z,101250.00
2018-09-04T17:07:18.292Z,101245.00
2018-09-04T17:09:47.490Z,101247.00
2018-09-04T17:12:16.292Z,101251.00
2018-09-04T17:14:45.087Z,101251.00
2018-09-04T17:17:13.932Z,101255.00
2018-09-04T17:19:42.733Z,101261.00
2018-09-04T17:22:11.534Z,101264.00
2018-09-04T17:24:40.412Z,101253.00
2018-09-04T17:27:09.205Z,101259.00
2018-09-04T17:29:38.026Z,101259.00
2018-09-04T17:32:07.380Z,101259.00
2018-09-04T17:34:36.166Z,101263.00
2018-09-04T17:37:05.095Z,101261.00
2018-09-04T17:39:33.975Z,101264.00
2018-09-04T17:42:02.837Z,101266.00
2018-09-04T17:44:31.648Z,101268.00
2018-09-04T17:47:00.907Z,101270.00
2018-09-04T17:49:30.619Z,101279.00
2018-09-04T17:51:59.426Z,101272.00
2018-09-04T17:54:28.763Z,101279.00
2018-09-04T17:56:57.562Z,101278.00
2018-09-04T17:59:26.386Z,101283.00
2018-09-04T18:01:55.240Z,101288.00
2018-09-04T18:04:24.049Z,101278.00
2018-09-04T18:06:53.011Z,101285.00
2018-09-04T18:09:21.826Z,101273.00
2018-09-04T18:11:50.654Z,101278.00
2018-09-04T18:14:19.489Z,101290.00
2018-09-04T18:16:48.578Z,101296.00
2018-09-04T18:19:18.085Z,101285.00
2018-09-04T18:21:46.897Z,101296.00
2018-09-04T18:24:15.811Z,101306.00
2018-09-04T18:26:44.608Z,101302.00
2018-09-04T18:29:13.411Z,101300.00
2018-09-04T18:31:43.008Z,101301.00
2018-09-04T18:34:11.811Z,101302.00
2018-09-04T18:36:40.650Z,101306.00
2018-09-04T18:39:09.788Z,101311.00
2018-09-04T18:41:38.591Z,101326.00
2018-09-04T18:44:07.411Z,101323.00
2018-09-04T18:46:36.251Z,101327.00
2018-09-04T18:49:05.213Z,101334.00
2018-09-04T18:51:34.427Z,101327.00
2018-09-04T18:54:03.243Z,101329.00
2018-09-04T18:56:32.080Z,101339.00
2018-09-04T18:59:00.951Z,101352.00
2018-09-04T19:01:29.930Z,101343.00
2018-09-04T19:03:58.750Z,101342.00
2018-09-04T19:06:27.580Z,101346.00
2018-09-04T19:08:56.400Z,101358.00
2018-09-04T19:11:25.216Z,101359.00
2018-09-04T19:13:54.046Z,101359.00
2018-09-04T19:16:22.920Z,101359.00
2018-09-04T19:18:51.730Z,101363.00
2018-09-04T19:21:20.575Z,101366.00
2018-09-04T19:23:49.635Z,101368.00
2018-09-04T19:26:18.447Z,101368.00
2018-09-04T19:28:47.263Z,101372.00
2018-09-04T19:31:16.207Z,101373.00
2018-09-04T19:33:45.020Z,101376.00
2018-09-04T19:36:13.835Z,101388.00
2018-09-04T19:38:42.682Z,101389.00
2018-09-04T19:41:11.541Z,101387.00
2018-09-04T19:43:40.586Z,101358.00
2018-09-04T19:46:09.602Z,101394.00
2018-09-04T19:48:38.394Z,101390.00
2018-09-04T19:51:07.295Z,101401.00
2018-09-04T19:53:36.401Z,101397.00
2018-09-04T19:56:05.745Z,101403.00
2018-09-04T19:58:34.581Z,101399.00
2018-09-04T20:01:03.468Z,101400.00
2018-09-04T20:03:32.206Z,101394.00
2018-09-04T20:06:01.005Z,101399.00
2018-09-04T20:08:30.076Z,101408.00
2018-09-04T20:10:58.891Z,101402.00
2018-09-04T20:13:27.808Z,101412.00
2018-09-04T20:15:56.522Z,101409.00
2018-09-04T20:18:25.351Z,101401.00
2018-09-04T20:20:54.166Z,101413.00
2018-09-04T20:23:23.003Z,101412.00
2018-09-04T20:25:51.810Z,101405.00
2018-09-04T20:28:20.626Z,101410.00
2018-09-04T20:30:49.697Z,101409.00
2018-09-04T20:33:18.524Z,101413.00
2018-09-04T20:35:47.340Z,101407.00
2018-09-04T20:38:16.162Z,101413.00
2018-09-04T20:40:44.983Z,101422.00
2018-09-04T20:43:13.830Z,101407.00
2018-09-04T20:45:42.683Z,101424.00
2018-09-04T20:48:11.510Z,101422.00
2018-09-04T20:50:40.319Z,101419.00
2018-09-04T20:53:09.631Z,101432.00
2018-09-04T20:55:38.831Z,101424.00
2018-09-04T20:58:24.965Z,101427.00
2018-09-04T21:01:10.998Z,101435.00
2018-09-04T21:03:57.166Z,101424.00
2018-09-04T21:06:44.563Z,101426.00
2018-09-04T21:09:26.597Z,101432.00
2018-09-04T21:11:55.407Z,101433.00
2018-09-04T21:14:24.638Z,101432.00
2018-09-04T21:16:53.516Z,101430.00
2018-09-04T21:19:22.349Z,101425.00
2018-09-04T21:21:51.166Z,101420.00
2018-09-04T21:24:20.135Z,101422.00
2018-09-04T21:26:49.203Z,101434.00
2018-09-04T21:29:18.047Z,101431.00
2018-09-04T21:31:47.305Z,101434.00
2018-09-04T21:34:16.126Z,101439.00
2018-09-04T21:36:44.935Z,101426.00
2018-09-04T21:39:13.790Z,101439.00
2018-09-04T21:41:42.630Z,101422.00
2018-09-04T21:44:11.452Z,101435.00
2018-09-04T21:46:40.298Z,101431.00
2018-09-04T21:49:09.125Z,101444.00
2018-09-04T21:51:45.196Z,101441.00
2018-09-04T21:54:14.014Z,101452.00
2018-09-04T21:56:43.281Z,101442.00
2018-09-04T21:59:12.129Z,101442.00
2018-09-04T22:01:40.958Z,101443.00
2018-09-04T22:04:09.764Z,101434.00
2018-09-04T22:06:38.604Z,101436.00
2018-09-04T22:09:07.779Z,101430.00
2018-09-04T22:11:36.638Z,101435.00
2018-09-04T22:14:05.926Z,101432.00
2018-09-04T22:16:34.766Z,101437.00
2018-09-04T22:19:03.617Z,101429.00
2018-09-04T22:21:32.486Z,101428.00
2018-09-04T22:24:01.308Z,101426.00
2018-09-04T22:26:30.158Z,101428.00
2018-09-04T22:28:59.032Z,101442.00
2018-09-04T22:31:27.868Z,101441.00
2018-09-04T22:33:56.707Z,101440.00
2018-09-04T22:36:25.731Z,101436.00
2018-09-04T22:38:54.560Z,101436.00
2018-09-04T22:41:23.363Z,101436.00
2018-09-04T22:43:52.198Z,101435.00
2018-09-04T22:46:21.066Z,101427.00
2018-09-04T22:48:49.894Z,101430.00
2018-09-04T22:51:35.276Z,101437.00
2018-09-04T22:54:05.066Z,101430.00
2018-09-04T22:56:33.907Z,101431.00
2018-09-04T22:59:02.989Z,101435.00
2018-09-04T23:01:31.871Z,101429.00
2018-09-04T23:04:00.697Z,101425.00
2018-09-04T23:06:29.555Z,101431.00
2018-09-04T23:08:58.436Z,101428.00
2018-09-04T23:11:27.262Z,101438.00
2018-09-04T23:13:56.602Z,101435.00
2018-09-04T23:16:25.422Z,101433.00
2018-09-04T23:18:54.226Z,101437.00
2018-09-04T23:21:23.042Z,101437.00
2018-09-04T23:23:51.876Z,101426.00
2018-09-04T23:26:20.788Z,101426.00
2018-09-04T23:28:49.651Z,101433.00
2018-09-04T23:31:18.470Z,101430.00
2018-09-04T23:33:47.281Z,101433.00
2018-09-04T23:36:16.526Z,101422.00
2018-09-04T23:38:45.346Z,101422.00
2018-09-04T23:41:14.169Z,101420.00
2018-09-04T23:43:42.999Z,101416.00
2018-09-04T23:46:11.854Z,101425.00
2018-09-04T23:48:40.662Z,101420.00
2018-09-04T23:51:09.525Z,101425.00
2018-09-04T23:53:38.381Z,101428.00
2018-09-04T23:56:07.246Z,101428.00
2018-09-04T23:58:36.643Z,101414.00
